Time;durP1;ratioP1;P1;durP2;ratioP2;P2;SDS_P1;SDS_P2;PMS_P1;PMS_P2;Temp;Humidity;BMP_temperature;BMP_pressure;BME280_temperature;BME280_humidity;BME280_pressure;Samples;Min_cycle;Max_cycle;Signal;HPM_P1;HPM_P2
2023/04/08 00:00:34;;;;;;;5.53;4.77;;;;;;;8.83;66.47;99852.81;5021088;28;20206;-80
2023/04/08 00:03:01;;;;;;;6.10;5.40;;;;;;;8.89;66.29;99856.06;5021669;28;20225;-80
2023/04/08 00:05:27;;;;;;;5.80;5.20;;;;;;;8.91;66.52;99857.66;5019385;28;20445;-78
2023/04/08 00:07:52;;;;;;;5.73;5.07;;;;;;;8.91;66.85;99856.78;5020326;28;20225;-78
2023/04/08 00:10:18;;;;;;;6.60;5.63;;;;;;;8.89;66.67;99851.66;5020682;28;20965;-80
2023/04/08 00:12:43;;;;;;;5.87;5.37;;;;;;;8.88;66.77;99843.88;5020382;28;20586;-82
2023/04/08 00:15:09;;;;;;;6.10;5.03;;;;;;;8.85;66.78;99843.09;5021201;28;20559;-80
2023/04/08 00:17:34;;;;;;;5.17;4.67;;;;;;;8.85;66.69;99845.72;5019174;28;20675;-82
2023/04/08 00:20:00;;;;;;;5.33;4.60;;;;;;;8.83;66.80;99846.72;5019468;28;20209;-81
2023/04/08 00:22:25;;;;;;;7.90;5.53;;;;;;;8.77;66.76;99847.88;5019426;28;20226;-78
2023/04/08 00:24:51;;;;;;;5.00;4.33;;;;;;;8.69;66.96;99852.69;5021807;28;20670;-80
2023/04/08 00:27:16;;;;;;;6.00;4.90;;;;;;;8.61;67.21;99853.09;5025074;28;20332;-78
2023/04/08 00:29:45;;;;;;;6.43;4.70;;;;;;;8.57;67.36;99850.72;5025553;28;20842;-79
2023/04/08 00:32:10;;;;;;;7.78;4.00;;;;;;;8.55;67.32;99858.63;5033841;28;20201;-82
2023/04/08 00:34:37;;;;;;;4.73;4.33;;;;;;;8.52;67.42;99861.41;5024110;28;20177;-81
2023/04/08 00:37:02;;;;;;;4.68;4.18;;;;;;;8.47;67.35;99852.09;5022190;28;20206;-79
2023/04/08 00:39:28;;;;;;;5.33;4.53;;;;;;;8.46;67.49;99853.88;5019659;28;20206;-79
2023/04/08 00:41:53;;;;;;;4.50;4.10;;;;;;;8.41;67.46;99848.88;5023348;28;20213;-80
2023/04/08 00:44:19;;;;;;;4.30;3.53;;;;;;;8.41;67.72;99856.72;5018900;28;20643;-79
2023/04/08 00:46:45;;;;;;;4.67;3.70;;;;;;;8.40;67.67;99855.03;5019801;28;20198;-79
2023/04/08 00:49:11;;;;;;;5.10;4.60;;;;;;;8.38;67.74;99846.38;5020096;28;20208;-81
2023/04/08 00:51:36;;;;;;;4.85;4.15;;;;;;;8.33;67.63;99855.38;5022977;28;20199;-81
2023/04/08 00:54:06;;;;;;;5.00;4.50;;;;;;;8.25;67.77;99854.94;5024718;28;20204;-79
2023/04/08 00:56:31;;;;;;;5.80;3.97;;;;;;;8.13;67.93;99857.25;5023363;28;20202;-82
2023/04/08 00:58:59;;;;;;;3.95;3.65;;;;;;;8.07;68.03;99854.91;5022702;28;20550;-81
2023/04/08 01:01:36;;;;;;;3.88;3.53;;;;;;;8.00;68.04;99856.16;5039835;28;20608;-81
2023/04/08 01:04:20;;;;;;;3.95;3.55;;;;;;;7.88;68.48;99862.81;5022186;28;20566;-79
2023/04/08 01:06:57;;;;;;;3.72;3.42;;;;;;;7.80;68.40;99864.09;5024417;28;20244;-80
2023/04/08 01:09:26;;;;;;;3.53;3.10;;;;;;;7.72;68.64;99867.94;5034847;28;20745;-79
2023/04/08 01:11:53;;;;;;;6.93;4.88;;;;;;;7.66;68.67;99870.84;5035285;28;20592;-79
2023/04/08 01:14:26;;;;;;;4.80;4.30;;;;;;;7.57;68.65;99866.06;5018225;28;20581;-79
2023/04/08 01:16:55;;;;;;;19.77;13.27;;;;;;;7.48;68.98;99869.06;5023612;28;20701;-79
2023/04/08 01:19:31;;;;;;;7.40;6.70;;;;;;;7.40;69.34;99873.81;5022165;28;20260;-79
2023/04/08 01:22:09;;;;;;;5.57;4.60;;;;;;;7.38;69.15;99873.91;5025098;28;20233;-79
2023/04/08 01:24:39;;;;;;;5.82;4.10;;;;;;;7.40;69.06;99872.06;5024686;28;20629;-80
2023/04/08 01:27:06;;;;;;;5.60;4.40;;;;;;;7.43;69.12;99865.88;5023042;28;20404;-79
2023/04/08 01:29:34;;;;;;;5.35;4.85;;;;;;;7.46;69.10;99866.56;5022094;28;20592;-82
2023/04/08 01:32:00;;;;;;;5.43;4.88;;;;;;;7.48;68.95;99864.72;5025700;28;20289;-79
2023/04/08 01:34:28;;;;;;;6.13;4.95;;;;;;;7.51;68.86;99858.50;5026230;28;20294;-80
2023/04/08 01:36:57;;;;;;;5.68;5.00;;;;;;;7.53;68.76;99859.25;5023539;28;20246;-79
2023/04/08 01:39:24;;;;;;;5.70;4.50;;;;;;;7.56;68.55;99866.97;5023729;28;20198;-79
2023/04/08 01:41:52;;;;;;;4.75;3.58;;;;;;;7.56;68.81;99869.59;5023813;28;20202;-82
2023/04/08 01:44:20;;;;;;;4.45;3.60;;;;;;;7.49;68.78;99870.78;5023828;28;20201;-83
2023/04/08 01:46:46;;;;;;;5.20;4.18;;;;;;;7.37;69.20;99864.38;5022788;28;20581;-79
2023/04/08 01:49:13;;;;;;;5.43;3.85;;;;;;;7.30;69.49;99865.56;5023639;28;20198;-79
2023/04/08 01:51:40;;;;;;;3.80;3.45;;;;;;;7.24;70.16;99868.47;5025632;28;20195;-79
2023/04/08 01:54:05;;;;;;;4.95;4.45;;;;;;;7.22;70.00;99860.69;5022130;28;20201;-83
2023/04/08 01:56:35;;;;;;;6.93;3.97;;;;;;;7.21;70.20;99866.84;5023629;28;20232;-81
2023/04/08 01:59:04;;;;;;;6.40;4.38;;;;;;;7.22;70.25;99863.31;5021741;28;20263;-81
2023/04/08 02:01:33;;;;;;;4.40;4.00;;;;;;;7.26;70.03;99869.22;5019983;28;20689;-79
2023/04/08 02:04:00;;;;;;;3.92;3.53;;;;;;;7.29;69.89;99867.34;5020696;28;20206;-79
2023/04/08 02:06:28;;;;;;;3.47;3.10;;;;;;;7.28;70.24;99870.00;5021784;28;20284;-80
2023/04/08 02:08:55;;;;;;;4.03;3.25;;;;;;;7.23;70.56;99864.16;5020003;28;20250;-79
2023/04/08 02:11:21;;;;;;;5.68;3.75;;;;;;;7.16;70.93;99871.44;5020764;28;20245;-79
2023/04/08 02:13:46;;;;;;;4.30;3.87;;;;;;;7.12;71.29;99876.84;5020049;28;20340;-82
2023/04/08 02:16:33;;;;;;;5.43;3.33;;;;;;;7.12;71.35;99882.06;5018480;28;20268;-82
2023/04/08 02:19:10;;;;;;;3.60;3.30;;;;;;;7.17;71.39;99878.34;5020049;28;20682;-79
2023/04/08 02:21:45;;;;;;;4.82;4.03;;;;;;;7.22;71.00;99875.53;5021744;28;20201;-82
2023/04/08 02:24:12;;;;;;;4.47;3.05;;;;;;;7.29;71.04;99876.91;5019254;28;20201;-81
2023/04/08 02:26:39;;;;;;;3.90;3.30;;;;;;;7.36;70.71;99875.72;5021390;28;20285;-79
2023/04/08 02:29:06;;;;;;;5.40;3.25;;;;;;;7.41;70.68;99875.53;5019607;28;20206;-80
2023/04/08 02:31:33;;;;;;;5.55;4.10;;;;;;;7.43;70.18;99876.31;5019971;28;20198;-79
2023/04/08 02:33:59;;;;;;;3.45;3.15;;;;;;;7.45;70.49;99877.94;5016914;28;20683;-79
2023/04/08 02:36:31;;;;;;;9.18;4.13;;;;;;;7.46;70.38;99882.25;5017195;28;20672;-79
2023/04/08 02:38:59;;;;;;;4.63;4.22;;;;;;;7.48;70.42;99876.91;5015088;28;20289;-79
2023/04/08 02:41:27;;;;;;;3.80;2.97;;;;;;;7.50;70.10;99880.31;5015500;28;20207;-80
2023/04/08 02:43:54;;;;;;;2.75;2.55;;;;;;;7.54;70.00;99879.28;5017696;28;20202;-79
2023/04/08 02:46:20;;;;;;;3.53;3.00;;;;;;;7.53;69.99;99873.19;5021056;28;20210;-81
2023/04/08 02:48:45;;;;;;;4.43;3.37;;;;;;;7.55;70.10;99870.50;5020485;28;20206;-79
2023/04/08 02:51:10;;;;;;;3.70;2.50;;;;;;;7.54;69.88;99879.28;5020320;28;20309;-80
2023/04/08 02:53:36;;;;;;;4.43;2.53;;;;;;;7.57;70.11;99879.13;5019658;28;20244;-80
2023/04/08 02:56:01;;;;;;;3.80;3.40;;;;;;;7.59;69.83;99876.41;5019944;28;20232;-80
2023/04/08 02:58:27;;;;;;;4.27;2.90;;;;;;;7.57;69.70;99876.50;5021098;28;20301;-82
2023/04/08 03:00:52;;;;;;;5.10;3.07;;;;;;;7.54;69.91;99874.03;5023473;28;20201;-80
2023/04/08 03:03:18;;;;;;;3.50;3.20;;;;;;;7.56;70.01;99871.34;5018257;28;20590;-80
2023/04/08 03:05:43;;;;;;;4.40;3.50;;;;;;;7.60;69.98;99872.91;5022839;28;20440;-81
2023/04/08 03:08:09;;;;;;;3.80;3.00;;;;;;;7.60;70.37;99868.53;5021167;28;20242;-81
2023/04/08 03:10:34;;;;;;;4.50;3.10;;;;;;;7.61;70.11;99859.75;5021787;28;20231;-80
2023/04/08 03:12:59;;;;;;;4.43;2.27;;;;;;;7.62;69.96;99863.22;5021101;28;20849;-81
2023/04/08 03:15:25;;;;;;;3.00;2.33;;;;;;;7.63;70.06;99863.13;5020266;28;20198;-83
2023/04/08 03:17:50;;;;;;;3.97;2.63;;;;;;;7.62;69.96;99861.47;5025093;28;20218;-79
2023/04/08 03:20:16;;;;;;;2.57;2.20;;;;;;;7.63;69.98;99863.13;5026546;28;20197;-79
2023/04/08 03:22:41;;;;;;;3.27;2.30;;;;;;;7.68;69.96;99866.38;5022287;28;20653;-77
2023/04/08 03:25:07;;;;;;;3.17;2.10;;;;;;;7.76;69.81;99864.25;5020083;28;20305;-77
2023/04/08 03:27:32;;;;;;;2.57;2.27;;;;;;;7.87;69.53;99870.75;5018120;28;20217;-78
2023/04/08 03:29:58;;;;;;;4.70;2.47;;;;;;;7.93;69.37;99868.66;5019798;28;20453;-78
2023/04/08 03:32:23;;;;;;;2.63;2.37;;;;;;;8.01;69.26;99865.69;5018320;28;20198;-77
2023/04/08 03:34:52;;;;;;;3.67;3.30;;;;;;;8.02;69.13;99864.78;5018649;28;20279;-78
2023/04/08 03:37:18;;;;;;;2.83;2.58;;;;;;;8.02;69.17;99872.63;5018263;28;20848;-78
2023/04/08 03:39:43;;;;;;;4.00;2.40;;;;;;;8.03;69.28;99873.47;5018506;28;20214;-77
2023/04/08 03:42:08;;;;;;;3.30;3.00;;;;;;;7.96;69.02;99875.50;5018673;28;20198;-77
2023/04/08 03:44:34;;;;;;;3.67;2.70;;;;;;;7.92;69.40;99879.22;5018151;28;20213;-77
2023/04/08 03:46:59;;;;;;;2.80;2.40;;;;;;;7.84;69.43;99870.91;5015464;28;20203;-77
2023/04/08 03:49:25;;;;;;;3.03;2.57;;;;;;;7.74;69.61;99876.53;5023219;28;20678;-77
2023/04/08 03:51:50;;;;;;;2.83;2.63;;;;;;;7.66;69.71;99875.22;5025082;28;20209;-77
2023/04/08 03:54:16;;;;;;;3.40;2.70;;;;;;;7.58;69.81;99879.97;5016566;28;20225;-77
2023/04/08 03:56:41;;;;;;;3.03;2.70;;;;;;;7.52;69.90;99871.47;5022024;28;20635;-77
2023/04/08 03:59:06;;;;;;;2.67;2.47;;;;;;;7.51;70.37;99868.97;5020174;28;20716;-77
2023/04/08 04:01:32;;;;;;;3.83;2.67;;;;;;;7.54;70.31;99874.03;5019666;28;20232;-77
2023/04/08 04:03:57;;;;;;;2.80;2.60;;;;;;;7.59;69.99;99864.22;5017689;28;20254;-77
2023/04/08 04:06:22;;;;;;;3.50;3.20;;;;;;;7.57;70.11;99863.44;5021677;28;20558;-78
2023/04/08 04:08:49;;;;;;;3.20;2.73;;;;;;;7.64;70.00;99869.22;5020212;28;20299;-76
2023/04/08 04:11:15;;;;;;;3.90;2.80;;;;;;;7.71;69.82;99868.00;5023165;28;20203;-75
2023/04/08 04:13:40;;;;;;;3.80;3.10;;;;;;;7.81;69.59;99878.88;5015291;28;20205;-78
2023/04/08 04:16:05;;;;;;;3.87;3.33;;;;;;;7.80;69.57;99875.41;5020245;28;20913;-76
2023/04/08 04:18:31;;;;;;;4.50;4.13;;;;;;;7.79;69.37;99868.50;5018450;28;20360;-77
2023/04/08 04:20:56;;;;;;;2.73;2.50;;;;;;;7.80;69.62;99869.31;5019654;28;20210;-77
2023/04/08 04:23:24;;;;;;;3.87;3.20;;;;;;;7.86;69.60;99871.69;5018877;28;20217;-77
2023/04/08 04:25:50;;;;;;;3.15;2.58;;;;;;;7.94;69.26;99872.16;5014894;28;20289;-77
2023/04/08 04:28:15;;;;;;;2.97;2.50;;;;;;;8.00;69.26;99871.84;5018035;28;20203;-78
2023/04/08 04:30:41;;;;;;;2.17;1.70;;;;;;;8.06;68.87;99868.91;5015651;28;20276;-77
2023/04/08 04:33:06;;;;;;;2.77;2.40;;;;;;;8.11;68.84;99866.94;5018386;28;20241;-77
2023/04/08 04:35:32;;;;;;;2.53;2.30;;;;;;;8.16;68.65;99877.19;5015695;28;20403;-77
2023/04/08 04:37:58;;;;;;;3.60;3.25;;;;;;;8.17;68.60;99874.47;5016592;28;20225;-77
2023/04/08 04:40:24;;;;;;;2.83;1.97;;;;;;;8.19;68.84;99885.72;5017701;28;20202;-78
2023/04/08 04:42:49;;;;;;;2.60;2.40;;;;;;;8.20;68.74;99884.78;5021184;28;20522;-77
2023/04/08 04:45:15;;;;;;;2.73;2.37;;;;;;;8.25;68.57;99888.94;5017841;28;20198;-77
2023/04/08 04:47:40;;;;;;;2.90;2.30;;;;;;;8.27;68.24;99895.81;5020069;28;20201;-77
2023/04/08 04:50:06;;;;;;;2.90;2.33;;;;;;;8.24;68.48;99890.72;5022454;28;20700;-77
2023/04/08 04:52:31;;;;;;;2.73;2.33;;;;;;;8.20;68.45;99892.63;5021311;28;20650;-77
2023/04/08 04:54:57;;;;;;;4.77;2.50;;;;;;;8.18;68.62;99902.34;5022177;28;20453;-77
2023/04/08 04:57:23;;;;;;;2.87;2.67;;;;;;;8.18;68.63;99891.00;5019743;28;20242;-77
2023/04/08 04:59:48;;;;;;;2.67;2.33;;;;;;;8.13;68.59;99899.09;5019961;28;20202;-77
2023/04/08 05:02:14;;;;;;;2.53;2.17;;;;;;;8.09;68.71;99900.16;5020870;28;20206;-77
2023/04/08 05:04:39;;;;;;;4.00;2.80;;;;;;;8.02;68.80;99900.53;5016200;28;20232;-77
2023/04/08 05:09:36;;;;;;;4.47;2.30;;;;;;;7.89;69.04;99901.13;4951523;28;20337;-77
2023/04/08 05:12:02;;;;;;;2.97;2.50;;;;;;;7.86;69.12;99911.75;4960576;28;20279;-76
2023/04/08 05:14:29;;;;;;;2.97;2.40;;;;;;;7.87;69.20;99907.34;4975744;28;20192;-76
2023/04/08 05:16:55;;;;;;;2.90;2.40;;;;;;;7.90;69.35;99915.06;4972946;28;20192;-76
2023/04/08 05:19:20;;;;;;;1.92;1.77;;;;;;;7.96;69.13;99919.97;4995335;28;20978;-76
2023/04/08 05:21:46;;;;;;;3.50;2.80;;;;;;;8.03;68.78;99910.94;4996319;28;20204;-76
2023/04/08 05:24:11;;;;;;;2.33;2.13;;;;;;;8.09;68.79;99915.84;4995517;28;20209;-77
2023/04/08 05:26:37;;;;;;;4.90;2.60;;;;;;;8.13;68.54;99920.03;4990394;28;20231;-76
2023/04/08 05:29:02;;;;;;;2.60;2.33;;;;;;;8.17;68.58;99916.31;4994776;28;20214;-76
2023/04/08 05:31:27;;;;;;;4.47;2.83;;;;;;;8.22;68.31;99923.97;4995117;28;20199;-76
2023/04/08 05:33:53;;;;;;;5.37;2.60;;;;;;;8.25;68.29;99928.19;4994143;28;20203;-76
2023/04/08 05:36:18;;;;;;;10.27;5.20;;;;;;;8.22;68.33;99918.72;4994484;28;20278;-76
2023/04/08 05:38:44;;;;;;;12.27;8.30;;;;;;;8.16;68.46;99922.50;5007986;28;20782;-76
2023/04/08 05:41:09;;;;;;;8.27;6.10;;;;;;;8.11;68.56;99923.66;4990517;28;20699;-76
2023/04/08 05:43:35;;;;;;;34.07;28.53;;;;;;;8.12;68.70;99928.78;4992591;28;20215;-76
2023/04/08 05:46:08;;;;;;;6.70;6.03;;;;;;;8.16;68.83;99935.56;4990369;28;20280;-76
2023/04/08 05:48:34;;;;;;;4.20;3.80;;;;;;;8.21;68.42;99932.75;4988420;28;20667;-76
2023/04/08 05:50:59;;;;;;;4.55;3.50;;;;;;;8.24;68.35;99924.75;4989717;28;20645;-76
2023/04/08 05:53:25;;;;;;;4.10;3.23;;;;;;;8.26;68.29;99935.13;4988225;28;20277;-76
2023/04/08 05:55:50;;;;;;;3.90;3.50;;;;;;;8.25;68.36;99939.50;4990713;28;20619;-77
2023/04/08 05:58:16;;;;;;;3.30;2.83;;;;;;;8.23;68.39;99937.88;4987096;28;20890;-76
2023/04/08 06:00:41;;;;;;;3.20;2.27;;;;;;;8.21;68.49;99943.22;4985756;28;20683;-78
2023/04/08 06:03:06;;;;;;;3.20;2.90;;;;;;;8.26;68.45;99945.59;4984502;28;20281;-76
2023/04/08 06:05:32;;;;;;;5.40;3.70;;;;;;;8.32;68.44;99947.94;4989111;28;20742;-77
2023/04/08 06:07:57;;;;;;;4.93;4.43;;;;;;;8.36;68.34;99952.06;4989720;28;20231;-76
2023/04/08 06:10:23;;;;;;;4.93;4.43;;;;;;;8.41;68.24;99958.81;4987910;28;20290;-76
2023/04/08 06:12:48;;;;;;;14.07;8.57;;;;;;;8.47;68.04;99964.66;4989899;28;20242;-76
2023/04/08 06:15:15;;;;;;;6.97;5.70;;;;;;;8.51;68.04;99967.06;4988668;28;20671;-77
2023/04/08 06:17:40;;;;;;;5.78;4.88;;;;;;;8.51;68.10;99964.44;4991716;28;20409;-77
2023/04/08 06:20:08;;;;;;;5.03;4.43;;;;;;;8.52;68.16;99965.28;4990791;28;20646;-77
2023/04/08 06:22:35;;;;;;;6.80;5.32;;;;;;;8.53;68.29;99970.47;4987818;28;20191;-77
2023/04/08 06:25:01;;;;;;;5.30;4.80;;;;;;;8.56;68.07;99970.31;4990343;28;20200;-76
2023/04/08 06:27:26;;;;;;;8.57;4.63;;;;;;;8.54;68.12;99972.16;4991554;28;20208;-77
2023/04/08 06:29:52;;;;;;;4.60;4.17;;;;;;;8.55;68.37;99973.84;4990001;28;20323;-78
2023/04/08 06:32:18;;;;;;;4.77;3.83;;;;;;;8.57;68.13;99974.63;4989813;28;20704;-76
2023/04/08 06:34:46;;;;;;;5.20;4.43;;;;;;;8.59;68.07;99978.00;4987419;28;20542;-77
2023/04/08 06:37:12;;;;;;;8.48;5.60;;;;;;;8.61;68.28;99978.78;4989335;28;20778;-78
2023/04/08 06:39:37;;;;;;;5.13;4.57;;;;;;;8.61;68.47;99973.56;4990808;28;20717;-77
2023/04/08 06:42:03;;;;;;;5.03;4.33;;;;;;;8.63;68.48;99976.91;4984017;28;20679;-77
2023/04/08 06:44:51;;;;;;;5.43;3.75;;;;;;;8.67;68.36;99972.41;4987087;28;20226;-77
2023/04/08 06:47:16;;;;;;;4.03;3.63;;;;;;;8.70;68.46;99976.63;4983200;28;20611;-77
2023/04/08 06:49:42;;;;;;;4.63;4.13;;;;;;;8.75;68.37;99972.84;4988220;28;20282;-77
2023/04/08 06:52:07;;;;;;;5.00;4.50;;;;;;;8.79;68.24;99971.75;4986964;28;20298;-77
2023/04/08 06:54:33;;;;;;;7.67;4.57;;;;;;;8.85;68.20;99971.44;4987727;28;20268;-77
2023/04/08 06:56:58;;;;;;;6.17;5.37;;;;;;;8.91;68.00;99978.19;4989817;28;20234;-77
2023/04/08 06:59:23;;;;;;;4.80;4.40;;;;;;;8.91;68.02;99979.91;4989009;28;20721;-77
2023/04/08 07:01:49;;;;;;;7.10;5.70;;;;;;;8.91;68.32;99983.41;4987042;28;20243;-77
2023/04/08 07:04:14;;;;;;;7.50;6.07;;;;;;;8.88;68.47;99980.91;4987594;28;20647;-77
2023/04/08 07:06:39;;;;;;;21.33;18.40;;;;;;;8.89;68.49;99984.41;4988905;28;20242;-76
2023/04/08 07:09:05;;;;;;;35.00;25.27;;;;;;;8.93;68.31;99984.16;4987289;28;20561;-77
2023/04/08 07:11:31;;;;;;;31.00;23.07;;;;;;;8.97;68.33;99988.34;4987446;28;20261;-78
2023/04/08 07:13:56;;;;;;;21.23;17.13;;;;;;;9.05;68.11;99982.72;4983509;28;20480;-77
2023/04/08 07:16:21;;;;;;;15.70;11.37;;;;;;;9.14;68.07;99987.47;4986577;28;20318;-78
2023/04/08 07:18:47;;;;;;;10.80;8.63;;;;;;;9.25;67.64;99984.28;4985611;28;20258;-77
2023/04/08 07:21:12;;;;;;;9.87;6.90;;;;;;;9.36;67.54;99984.56;4987915;28;20540;-78
2023/04/08 07:23:38;;;;;;;5.73;5.23;;;;;;;9.46;67.12;99987.56;4988836;28;20649;-78
2023/04/08 07:26:04;;;;;;;8.50;4.87;;;;;;;9.57;67.01;99994.84;4987086;28;20549;-77
2023/04/08 07:28:30;;;;;;;4.93;3.78;;;;;;;9.67;66.62;99994.28;4987220;28;20231;-78
2023/04/08 07:30:56;;;;;;;5.80;5.05;;;;;;;9.75;66.48;99993.88;4989026;28;20203;-77
2023/04/08 07:33:22;;;;;;;6.33;5.83;;;;;;;9.81;66.26;99993.53;5002423;28;20215;-77
2023/04/08 07:35:48;;;;;;;8.45;6.20;;;;;;;9.87;66.25;99992.34;4985616;28;20907;-78
2023/04/08 07:38:13;;;;;;;5.63;5.03;;;;;;;9.91;66.01;99986.88;4987114;28;20214;-78
2023/04/08 07:40:39;;;;;;;7.33;6.30;;;;;;;9.99;66.07;99994.31;4986999;28;20810;-77
2023/04/08 07:43:04;;;;;;;5.53;4.90;;;;;;;10.05;65.59;99990.50;4988503;28;20206;-78
2023/04/08 07:45:30;;;;;;;8.73;6.43;;;;;;;10.16;65.52;99993.38;4986869;28;20261;-77
2023/04/08 07:47:55;;;;;;;8.67;6.70;;;;;;;10.29;65.22;99991.78;4981808;28;20668;-77
2023/04/08 07:50:21;;;;;;;7.23;6.53;;;;;;;10.42;64.71;99994.56;4986781;28;20199;-79
2023/04/08 07:52:46;;;;;;;8.00;5.85;;;;;;;10.56;64.52;99996.41;4988193;28;20191;-79
2023/04/08 07:55:12;;;;;;;5.57;5.00;;;;;;;10.76;63.98;99997.88;4985388;28;20553;-78
2023/04/08 07:57:37;;;;;;;5.93;4.93;;;;;;;10.98;63.48;99984.31;4987226;28;20218;-79
2023/04/08 08:00:03;;;;;;;7.17;6.50;;;;;;;11.21;62.48;99981.19;4988975;28;20671;-79
2023/04/08 08:02:38;;;;;;;8.10;7.30;;;;;;;11.54;61.81;99992.38;4987815;28;20166;-79
2023/04/08 08:05:05;;;;;;;7.97;6.37;;;;;;;11.96;60.56;99988.84;4989054;28;20200;-79
2023/04/08 08:07:30;;;;;;;17.17;8.50;;;;;;;12.36;59.58;99986.31;4987533;28;20200;-79
2023/04/08 08:09:56;;;;;;;8.07;6.93;;;;;;;12.52;58.87;99986.16;4985734;28;20214;-79
2023/04/08 08:12:21;;;;;;;8.20;6.80;;;;;;;12.55;58.62;99996.50;4988364;28;20675;-79
2023/04/08 08:14:46;;;;;;;12.43;7.17;;;;;;;12.50;58.70;99994.19;4985912;28;20313;-78
2023/04/08 08:17:12;;;;;;;11.33;7.80;;;;;;;12.46;58.84;99990.03;4982833;28;20199;-79
2023/04/08 08:19:37;;;;;;;6.93;6.17;;;;;;;12.43;58.83;99992.03;4985124;28;20230;-79
2023/04/08 08:22:03;;;;;;;7.27;6.30;;;;;;;12.43;59.17;99989.41;4987939;28;20301;-77
2023/04/08 08:24:28;;;;;;;9.73;6.80;;;;;;;12.46;59.12;99999.75;4990438;28;20219;-78
2023/04/08 08:26:53;;;;;;;9.53;6.70;;;;;;;12.49;59.12;99999.53;4993415;28;20206;-77
2023/04/08 08:29:19;;;;;;;8.63;7.00;;;;;;;12.50;59.14;99998.56;4992296;28;20203;-74
2023/04/08 08:31:45;;;;;;;7.50;6.77;;;;;;;12.48;59.21;99990.78;4993673;28;20205;-78
2023/04/08 08:34:10;;;;;;;14.10;7.87;;;;;;;12.53;59.26;99995.75;4991715;28;20206;-71
2023/04/08 08:36:35;;;;;;;8.20;7.30;;;;;;;12.54;59.18;99995.66;4993220;28;20214;-71
2023/04/08 08:39:01;;;;;;;8.97;6.60;;;;;;;12.59;59.03;99998.00;4989888;28;20211;-72
2023/04/08 08:41:26;;;;;;;8.97;6.70;;;;;;;12.60;58.69;99997.03;4992095;28;20781;-79
2023/04/08 08:43:52;;;;;;;11.10;7.23;;;;;;;12.68;58.66;100001.81;4990167;28;20276;-77
2023/04/08 08:46:18;;;;;;;12.27;9.85;;;;;;;12.85;58.31;100004.16;4992768;28;20202;-80
2023/04/08 08:48:44;;;;;;;8.43;6.10;;;;;;;13.18;57.48;100001.06;5005131;28;20610;-80
2023/04/08 08:51:10;;;;;;;8.77;7.90;;;;;;;13.40;56.87;100000.47;5008215;28;20200;-82
2023/04/08 08:53:36;;;;;;;10.18;7.55;;;;;;;13.47;56.38;99999.09;5003898;28;20263;-81
2023/04/08 08:56:02;;;;;;;8.40;7.60;;;;;;;13.44;56.56;100001.06;5010863;28;20222;-80
2023/04/08 08:58:28;;;;;;;11.15;7.70;;;;;;;13.58;56.45;100002.75;4996269;28;20541;-81
2023/04/08 09:00:53;;;;;;;8.53;6.90;;;;;;;13.67;56.17;100000.31;4996250;28;20199;-80
2023/04/08 09:03:23;;;;;;;9.20;7.60;;;;;;;13.75;55.89;100006.88;4996207;28;20214;-77
2023/04/08 09:06:01;;;;;;;8.73;6.90;;;;;;;13.67;55.91;100005.59;4993813;28;20683;-77
2023/04/08 09:08:30;;;;;;;10.95;7.60;;;;;;;13.49;56.44;100001.59;4994102;28;20223;-77
2023/04/08 09:11:10;;;;;;;12.40;7.40;;;;;;;13.28;57.04;100015.34;4996167;28;20203;-80
2023/04/08 09:13:36;;;;;;;9.38;7.90;;;;;;;13.13;57.30;100007.59;4995048;28;20210;-79
2023/04/08 09:16:03;;;;;;;8.50;6.50;;;;;;;13.06;57.64;100015.06;4995951;28;20207;-78
2023/04/08 09:18:29;;;;;;;9.98;8.90;;;;;;;13.05;57.65;100011.59;4998661;28;21091;-78
2023/04/08 09:20:55;;;;;;;7.97;6.63;;;;;;;13.10;57.82;100010.44;4997086;28;20233;-77
2023/04/08 09:23:20;;;;;;;8.27;6.97;;;;;;;13.15;57.64;100001.28;4997571;28;20206;-77
2023/04/08 09:25:46;;;;;;;9.53;6.70;;;;;;;13.15;57.46;100011.81;4994539;28;20219;-77
2023/04/08 09:28:20;;;;;;;10.20;6.67;;;;;;;13.11;57.40;100006.84;4995887;28;20223;-77
2023/04/08 09:30:46;;;;;;;10.13;6.75;;;;;;;13.07;57.32;100014.13;4996810;28;20289;-77
2023/04/08 09:33:12;;;;;;;8.35;6.70;;;;;;;12.98;57.47;100012.94;4996544;28;20202;-77
2023/04/08 09:35:38;;;;;;;9.40;7.83;;;;;;;12.91;57.53;100021.34;4996760;28;20199;-79
2023/04/08 09:38:03;;;;;;;7.17;6.37;;;;;;;12.82;57.78;100020.19;4995991;28;20215;-77
2023/04/08 09:40:32;;;;;;;11.90;7.17;;;;;;;12.77;58.03;100019.63;4997079;28;20199;-77
2023/04/08 09:43:04;;;;;;;11.80;9.70;;;;;;;12.76;58.11;100012.69;4992699;28;20214;-77
2023/04/08 09:45:33;;;;;;;13.23;8.13;;;;;;;12.68;57.83;100010.56;4996108;28;20218;-77
2023/04/08 09:48:21;;;;;;;9.90;8.65;;;;;;;12.63;58.05;100023.19;4994296;28;20203;-79
2023/04/08 09:50:49;;;;;;;10.55;7.50;;;;;;;12.57;58.27;100027.06;4992883;28;20353;-80
2023/04/08 09:53:33;;;;;;;10.95;7.18;;;;;;;12.55;58.31;100018.41;4990378;28;20298;-80
2023/04/08 09:56:01;;;;;;;12.18;7.78;;;;;;;12.51;58.62;100022.22;4993633;28;20195;-80
2023/04/08 09:58:45;;;;;;;16.38;10.13;;;;;;;12.51;58.78;100027.47;4990966;28;20212;-77
2023/04/08 10:01:13;;;;;;;18.42;14.32;;;;;;;12.51;58.83;100034.53;4996942;28;20660;-78
2023/04/08 10:03:51;;;;;;;13.45;9.85;;;;;;;12.52;59.00;100028.31;4997460;28;20221;-79
2023/04/08 10:06:16;;;;;;;15.98;10.10;;;;;;;12.57;59.05;100031.50;4992507;28;20322;-80
2023/04/08 10:08:43;;;;;;;13.33;11.93;;;;;;;12.63;58.62;100028.44;4993032;28;20659;-78
2023/04/08 10:11:09;;;;;;;13.55;10.20;;;;;;;12.71;58.49;100026.16;4994447;28;20199;-78
2023/04/08 10:13:35;;;;;;;12.60;9.03;;;;;;;12.81;58.40;100026.41;4992885;28;20245;-75
2023/04/08 10:16:23;;;;;;;14.73;9.93;;;;;;;12.96;58.35;100028.03;4994263;28;20512;-75
2023/04/08 10:18:51;;;;;;;12.18;8.00;;;;;;;13.10;57.83;100028.91;4993105;28;20970;-80
2023/04/08 10:21:47;;;;;;;12.93;8.35;;;;;;;13.24;57.62;100029.66;4992734;28;20191;-78
2023/04/08 10:24:12;;;;;;;12.45;9.85;;;;;;;13.36;57.23;100030.63;4992370;28;21364;-82
2023/04/08 10:26:42;;;;;;;10.73;8.33;;;;;;;13.45;57.12;100031.81;4993855;28;20210;-81
2023/04/08 10:29:31;;;;;;;9.45;6.43;;;;;;;13.46;56.19;100026.41;4992583;28;20632;-76
2023/04/08 10:31:56;;;;;;;11.15;8.13;;;;;;;13.55;56.15;100019.66;4984332;28;20762;-81
2023/04/08 10:34:25;;;;;;;12.70;8.33;;;;;;;13.66;56.12;100013.63;4992544;28;20223;-79
2023/04/08 10:36:51;;;;;;;14.10;8.88;;;;;;;13.80;55.75;100021.44;4992439;28;20284;-79
2023/04/08 10:39:17;;;;;;;10.95;8.60;;;;;;;13.91;55.44;100021.53;4990310;28;20545;-79
2023/04/08 10:41:44;;;;;;;9.60;7.82;;;;;;;14.09;54.70;100014.06;4992153;28;20688;-77
2023/04/08 10:44:16;;;;;;;10.50;8.85;;;;;;;14.27;54.14;100019.00;4991411;28;20287;-78
2023/04/08 10:46:42;;;;;;;12.75;8.60;;;;;;;14.50;53.69;100004.94;4991954;28;20202;-79
2023/04/08 10:49:08;;;;;;;13.53;9.00;;;;;;;14.75;53.16;100006.63;4990589;28;20203;-78
2023/04/08 10:51:36;;;;;;;10.37;8.07;;;;;;;14.78;52.37;100002.94;4990409;28;20513;-79
2023/04/08 10:54:09;;;;;;;10.32;7.35;;;;;;;14.82;52.32;100012.31;4992602;28;21314;-79
2023/04/08 10:56:42;;;;;;;9.25;8.15;;;;;;;14.82;52.01;100001.72;4991042;28;20242;-78
2023/04/08 10:59:08;;;;;;;9.98;8.57;;;;;;;14.70;51.65;100005.31;4991994;28;20250;-78
2023/04/08 11:01:40;;;;;;;10.30;8.50;;;;;;;14.52;52.12;100003.03;4992459;28;20200;-80
2023/04/08 11:04:10;;;;;;;9.68;7.55;;;;;;;14.50;52.23;99998.78;4993914;28;20276;-80
2023/04/08 11:06:36;;;;;;;8.95;7.47;;;;;;;14.49;52.51;99992.66;4993951;28;20195;-81
2023/04/08 11:09:03;;;;;;;9.30;7.27;;;;;;;14.49;52.04;100000.59;5024232;23;20874;-81
2023/04/08 11:11:30;;;;;;;7.32;5.78;;;;;;;14.47;51.63;99994.56;5006343;28;20235;-81
2023/04/08 11:13:56;;;;;;;9.90;7.28;;;;;;;14.42;51.68;99995.88;5022980;28;20202;-83
2023/04/08 11:16:22;;;;;;;10.32;6.75;;;;;;;14.42;51.75;100001.16;5025807;28;20705;-83
2023/04/08 11:18:49;;;;;;;8.73;6.10;;;;;;;14.39;51.17;99997.81;5017849;28;20218;-83
2023/04/08 11:21:15;;;;;;;6.65;5.97;;;;;;;14.37;51.30;100001.50;5016213;28;20700;-82
2023/04/08 11:23:41;;;;;;;8.50;6.80;;;;;;;14.32;51.34;100007.13;5016809;28;20297;-82
2023/04/08 11:26:07;;;;;;;10.10;7.70;;;;;;;14.36;51.53;99992.72;5017604;28;21019;-82
2023/04/08 11:28:34;;;;;;;10.83;8.00;;;;;;;14.35;51.38;99995.50;5017711;28;20202;-82
2023/04/08 11:31:02;;;;;;;10.40;7.75;;;;;;;14.35;51.50;99998.97;5019645;28;20457;-81
2023/04/08 11:33:31;;;;;;;6.65;5.90;;;;;;;14.49;51.54;99992.66;5014045;28;20198;-82
2023/04/08 11:35:56;;;;;;;9.30;6.57;;;;;;;14.59;51.05;99995.53;5013623;28;20905;-83